createdAt,value
2023-02-17T00:01:32.630Z,27.02
2023-02-17T00:03:59.607Z,28.58
2023-02-17T00:06:27.307Z,29.42
2023-02-17T00:08:53.959Z,30.58
2023-02-17T00:11:19.799Z,30.45
2023-02-17T00:13:46.020Z,28.20
2023-02-17T00:16:23.967Z,31.67
2023-02-17T00:19:25.650Z,27.30
2023-02-17T00:21:57.556Z,29.42
2023-02-17T00:24:25.683Z,29.15
2023-02-17T00:26:51.548Z,30.65
2023-02-17T00:29:17.512Z,29.38
2023-02-17T00:31:44.718Z,30.60
2023-02-17T00:34:10.982Z,29.83
2023-02-17T00:36:37.543Z,28.23
2023-02-17T00:39:04.335Z,28.90
2023-02-17T00:41:30.117Z,26.08
2023-02-17T00:43:56.124Z,29.85
2023-02-17T00:46:22.591Z,29.33
2023-02-17T00:48:49.000Z,30.83
2023-02-17T00:51:16.980Z,30.52
2023-02-17T00:53:43.095Z,29.50
2023-02-17T00:56:09.317Z,29.23
2023-02-17T00:58:35.612Z,32.00
2023-02-17T01:01:02.513Z,27.83
2023-02-17T01:03:28.705Z,27.73
2023-02-17T01:05:55.477Z,29.65
2023-02-17T01:08:22.512Z,30.92
2023-02-17T01:10:49.612Z,28.10
2023-02-17T01:13:17.126Z,30.30
2023-02-17T01:15:49.231Z,30.48
2023-02-17T01:18:17.055Z,29.15
2023-02-17T01:20:42.938Z,30.55
2023-02-17T01:23:10.353Z,29.95
2023-02-17T01:25:40.872Z,31.10
2023-02-17T01:28:08.506Z,29.23
2023-02-17T01:30:34.670Z,29.10
2023-02-17T01:33:00.515Z,28.45
2023-02-17T01:35:27.138Z,32.67
2023-02-17T01:37:52.933Z,25.15
2023-02-17T01:40:19.169Z,29.42
2023-02-17T01:42:45.032Z,28.67
2023-02-17T01:45:16.629Z,26.63
2023-02-17T01:48:01.631Z,27.65
2023-02-17T01:50:33.857Z,27.55
2023-02-17T01:53:01.751Z,25.00
2023-02-17T01:55:28.678Z,24.83
2023-02-17T01:57:58.859Z,27.98
2023-02-17T02:00:26.584Z,28.45
2023-02-17T02:02:52.892Z,23.73
2023-02-17T02:05:20.090Z,26.67
2023-02-17T02:07:47.782Z,25.10
2023-02-17T02:10:14.901Z,25.58
2023-02-17T02:12:42.030Z,24.80
2023-02-17T02:17:52.937Z,27.95
2023-02-17T02:20:48.335Z,24.83
2023-02-17T02:23:50.702Z,27.80
2023-02-17T02:26:38.017Z,23.80
2023-02-17T02:29:18.864Z,25.38
2023-02-17T02:32:18.205Z,22.92
2023-02-17T02:34:50.856Z,28.20
2023-02-17T02:37:24.571Z,25.17
2023-02-17T02:39:53.539Z,27.65
2023-02-17T02:42:22.145Z,24.23
2023-02-17T02:44:48.270Z,23.60
2023-02-17T02:47:44.552Z,27.50
2023-02-17T02:50:42.234Z,22.52
2023-02-17T02:53:15.273Z,20.40
2023-02-17T02:55:53.615Z,23.30
2023-02-17T02:58:25.683Z,23.75
2023-02-17T03:00:58.593Z,23.70
2023-02-17T03:03:36.803Z,23.13
2023-02-17T03:06:14.804Z,21.77
2023-02-17T03:08:56.646Z,24.52
2023-02-17T03:11:31.858Z,23.20
2023-02-17T03:14:06.742Z,25.65
2023-02-17T03:16:33.629Z,22.65
2023-02-17T03:18:59.575Z,21.20
2023-02-17T03:21:32.798Z,23.48
2023-02-17T03:23:58.612Z,20.75
2023-02-17T03:26:24.425Z,23.67
2023-02-17T03:28:50.320Z,23.02
2023-02-17T03:31:16.235Z,20.17
2023-02-17T03:33:42.375Z,20.60
2023-02-17T03:36:08.490Z,21.55
2023-02-17T03:38:34.432Z,20.38
2023-02-17T03:41:00.197Z,20.15
2023-02-17T03:43:26.006Z,20.00
2023-02-17T03:45:51.849Z,21.90
2023-02-17T03:48:17.668Z,18.63
2023-02-17T03:50:43.456Z,18.85
2023-02-17T03:53:10.634Z,19.25
2023-02-17T03:55:36.768Z,21.13
2023-02-17T03:58:02.909Z,17.15
2023-02-17T04:00:29.159Z,16.77
2023-02-17T04:02:56.350Z,19.60
2023-02-17T04:05:23.184Z,18.40
2023-02-17T04:07:49.296Z,19.65
2023-02-17T04:10:15.480Z,19.98
2023-02-17T04:12:41.462Z,20.00
2023-02-17T04:15:07.868Z,22.73
2023-02-17T04:17:37.152Z,18.63
2023-02-17T04:20:05.667Z,20.60
2023-02-17T04:22:31.586Z,18.55
2023-02-17T04:24:57.358Z,18.80
2023-02-17T04:27:23.173Z,20.17
2023-02-17T04:29:51.032Z,20.45
2023-02-17T04:32:17.225Z,18.60
2023-02-17T04:34:43.071Z,19.10
2023-02-17T04:37:08.980Z,19.13
2023-02-17T04:39:34.781Z,20.30
2023-02-17T04:42:00.652Z,19.30
2023-02-17T04:44:26.422Z,22.65
2023-02-17T04:46:52.208Z,19.77
2023-02-17T04:49:17.994Z,21.88
2023-02-17T04:51:43.753Z,19.40
2023-02-17T04:54:09.701Z,21.38
2023-02-17T04:56:35.501Z,17.88
2023-02-17T04:59:01.310Z,18.17
2023-02-17T05:01:27.213Z,17.80
2023-02-17T05:03:53.009Z,19.45
2023-02-17T05:06:18.777Z,18.98
2023-02-17T05:08:44.621Z,17.73
2023-02-17T05:11:10.428Z,21.73
2023-02-17T05:13:36.259Z,17.02
2023-02-17T05:16:02.209Z,16.08
2023-02-17T05:18:28.000Z,21.05
2023-02-17T05:20:53.742Z,17.40
2023-02-17T05:23:19.557Z,18.38
2023-02-17T05:25:45.351Z,16.42
2023-02-17T05:28:11.175Z,18.50
2023-02-17T05:30:37.003Z,17.85
2023-02-17T05:33:02.789Z,15.70
2023-02-17T05:35:28.551Z,17.27
2023-02-17T05:37:54.392Z,16.17
2023-02-17T05:40:20.189Z,17.25
2023-02-17T05:42:46.036Z,15.77
2023-02-17T05:45:11.928Z,15.90
2023-02-17T05:47:37.763Z,16.42
2023-02-17T05:50:04.039Z,15.07
2023-02-17T05:52:29.853Z,14.52
2023-02-17T05:54:55.779Z,15.20
2023-02-17T05:57:21.526Z,19.15
2023-02-17T05:59:47.413Z,15.25
2023-02-17T06:02:13.204Z,15.25
2023-02-17T06:04:39.133Z,14.80
2023-02-17T06:07:05.062Z,16.27
2023-02-17T06:09:30.856Z,14.02
2023-02-17T06:11:56.593Z,16.27
2023-02-17T06:14:22.425Z,15.32
2023-02-17T06:16:48.296Z,16.38
2023-02-17T06:19:14.109Z,16.42
2023-02-17T06:21:40.138Z,15.27
2023-02-17T06:24:06.044Z,16.38
2023-02-17T06:26:31.846Z,16.23
2023-02-17T06:28:57.667Z,18.13
2023-02-17T06:31:26.502Z,15.90
2023-02-17T06:33:52.575Z,15.05
2023-02-17T06:36:18.399Z,15.63
2023-02-17T06:38:44.242Z,17.17
2023-02-17T06:41:10.047Z,18.20
2023-02-17T06:43:35.857Z,15.23
2023-02-17T06:46:01.691Z,17.48
2023-02-17T06:48:27.523Z,17.98
2023-02-17T06:50:53.325Z,16.67
2023-02-17T06:53:19.168Z,15.70
2023-02-17T06:55:44.971Z,16.35
2023-02-17T06:58:10.791Z,15.65
2023-02-17T07:00:36.588Z,16.48
2023-02-17T07:03:02.510Z,16.48
2023-02-17T07:05:28.568Z,18.83
2023-02-17T07:07:57.021Z,15.85
2023-02-17T07:10:22.848Z,16.15
2023-02-17T07:12:48.774Z,16.13
2023-02-17T07:15:14.651Z,16.90
2023-02-17T07:17:40.458Z,16.80
2023-02-17T07:20:08.594Z,18.27
2023-02-17T07:22:34.613Z,15.50
2023-02-17T07:25:00.508Z,16.77
2023-02-17T07:27:26.345Z,19.13
2023-02-17T07:29:52.130Z,16.02
2023-02-17T07:32:17.928Z,18.23
2023-02-17T07:34:43.822Z,16.90
2023-02-17T07:37:09.610Z,14.82
2023-02-17T07:39:35.397Z,16.55
2023-02-17T07:42:04.246Z,18.20
2023-02-17T07:44:30.105Z,14.88
2023-02-17T07:46:55.947Z,17.10
2023-02-17T07:49:21.792Z,16.77
2023-02-17T07:51:47.722Z,16.17
2023-02-17T07:54:14.190Z,17.95
2023-02-17T07:56:40.070Z,17.00
2023-02-17T07:59:10.305Z,16.38
2023-02-17T08:01:36.736Z,15.18
2023-02-17T08:04:03.354Z,14.88
2023-02-17T08:06:29.266Z,15.38
2023-02-17T08:09:14.831Z,18.00
2023-02-17T08:12:00.440Z,14.93
2023-02-17T08:14:29.824Z,13.60
2023-02-17T08:16:56.676Z,14.50
2023-02-17T08:19:22.853Z,13.25
2023-02-17T08:21:49.148Z,12.77
2023-02-17T08:24:15.725Z,13.10
2023-02-17T08:26:41.931Z,13.80
2023-02-17T08:29:08.044Z,13.68
2023-02-17T08:31:35.669Z,15.75
2023-02-17T08:34:06.578Z,16.13
2023-02-17T08:36:32.845Z,16.48
2023-02-17T08:38:59.218Z,17.42
2023-02-17T08:41:31.146Z,20.38
2023-02-17T08:43:59.582Z,17.88
2023-02-17T08:46:26.655Z,20.17
2023-02-17T08:48:52.918Z,18.63
2023-02-17T08:51:25.307Z,18.83
2023-02-17T08:53:55.758Z,18.38
2023-02-17T08:56:22.976Z,18.58
2023-02-17T08:58:49.280Z,19.38
2023-02-17T09:01:17.685Z,18.13
2023-02-17T09:03:44.460Z,18.52
2023-02-17T09:06:15.082Z,19.27
2023-02-17T09:08:41.668Z,19.63
2023-02-17T09:11:09.707Z,19.13
2023-02-17T09:13:35.955Z,20.05
2023-02-17T09:16:02.487Z,21.23
2023-02-17T09:18:28.885Z,24.77
2023-02-17T09:20:54.761Z,24.33
2023-02-17T09:23:20.733Z,22.02
2023-02-17T09:25:46.860Z,19.60
2023-02-17T09:28:15.603Z,20.63
2023-02-17T09:30:41.880Z,22.17
2023-02-17T09:33:07.804Z,23.85
2023-02-17T09:35:33.761Z,21.33
2023-02-17T09:38:00.139Z,22.67
2023-02-17T09:40:40.296Z,22.25
2023-02-17T09:43:13.468Z,19.27
2023-02-17T09:45:40.813Z,18.52
2023-02-17T09:48:10.611Z,19.90
2023-02-17T09:50:44.690Z,17.50
2023-02-17T09:53:26.545Z,17.08
2023-02-17T09:55:54.590Z,17.42
2023-02-17T09:58:42.626Z,17.17
2023-02-17T10:01:18.869Z,17.33
2023-02-17T10:03:51.330Z,18.02
2023-02-17T10:06:28.826Z,17.30
2023-02-17T10:09:18.177Z,18.15
2023-02-17T10:11:47.653Z,18.55
2023-02-17T10:14:35.980Z,18.33
2023-02-17T10:17:45.299Z,17.88
2023-02-17T10:20:25.023Z,16.25
2023-02-17T10:22:57.470Z,18.88
2023-02-17T10:25:46.725Z,17.10
2023-02-17T10:28:27.942Z,16.67
2023-02-17T10:31:04.128Z,15.95
2023-02-17T10:33:44.543Z,15.90
2023-02-17T10:36:13.950Z,16.42
2023-02-17T10:39:12.248Z,14.35
2023-02-17T10:41:39.942Z,13.73
2023-02-17T10:44:11.167Z,13.10
2023-02-17T10:46:41.258Z,11.00
2023-02-17T10:49:18.042Z,10.18
2023-02-17T10:51:43.913Z,11.50
2023-02-17T10:54:49.646Z,11.05
2023-02-17T10:57:18.519Z,11.93
2023-02-17T10:59:46.615Z,9.38
2023-02-17T11:02:34.633Z,9.27
2023-02-17T11:05:00.500Z,8.77
2023-02-17T11:07:34.973Z,9.60
2023-02-17T11:10:04.469Z,11.48
2023-02-17T11:12:39.686Z,8.82
2023-02-17T11:15:16.528Z,8.98
2023-02-17T11:17:43.325Z,14.00
2023-02-17T11:20:31.905Z,8.38
2023-02-17T11:23:15.400Z,8.20
2023-02-17T11:25:42.722Z,9.43
2023-02-17T11:28:24.049Z,7.95
2023-02-17T11:30:53.997Z,7.85
2023-02-17T11:33:29.224Z,9.20
2023-02-17T11:35:56.077Z,7.55
2023-02-17T11:38:45.314Z,6.95
2023-02-17T11:41:11.307Z,11.52
2023-02-17T11:43:38.540Z,7.35
2023-02-17T11:46:17.140Z,7.22
2023-02-17T11:48:57.428Z,8.90
2023-02-17T11:51:41.288Z,12.15
2023-02-17T11:54:31.037Z,10.82
2023-02-17T11:57:35.732Z,8.65
2023-02-17T12:00:17.916Z,8.30
2023-02-17T12:03:17.591Z,7.30
2023-02-17T12:06:00.942Z,7.53
2023-02-17T12:08:42.878Z,7.28
2023-02-17T12:11:25.766Z,7.78
2023-02-17T12:14:13.407Z,6.28
2023-02-17T12:17:00.451Z,8.10
2023-02-17T12:19:51.293Z,6.30
2023-02-17T12:22:34.932Z,5.53
2023-02-17T12:25:23.770Z,5.72
2023-02-17T12:28:26.430Z,6.60
2023-02-17T12:31:23.139Z,5.13
2023-02-17T12:33:59.469Z,3.20
2023-02-17T12:36:33.183Z,4.60
2023-02-17T12:39:03.449Z,6.07
2023-02-17T12:41:38.016Z,6.20
2023-02-17T12:44:24.307Z,5.63
2023-02-17T12:46:55.740Z,6.00
2023-02-17T12:49:27.159Z,3.97
2023-02-17T12:52:17.079Z,4.50
2023-02-17T12:55:09.450Z,5.60
2023-02-17T12:57:57.565Z,5.65
2023-02-17T13:00:32.791Z,5.32
2023-02-17T13:03:01.458Z,6.55
2023-02-17T13:05:29.830Z,4.72
2023-02-17T13:08:13.898Z,7.10
2023-02-17T13:10:40.575Z,4.70
2023-02-17T13:13:24.962Z,5.90
2023-02-17T13:16:05.516Z,6.00
2023-02-17T13:18:37.309Z,6.18
2023-02-17T13:21:31.609Z,6.55
2023-02-17T13:24:00.098Z,5.63
2023-02-17T13:26:34.344Z,7.50
2023-02-17T13:29:28.884Z,8.23
2023-02-17T13:32:01.532Z,4.75
2023-02-17T13:34:35.835Z,6.47
2023-02-17T13:37:16.551Z,5.55
2023-02-17T13:39:42.596Z,7.15
2023-02-17T13:42:46.973Z,6.30
2023-02-17T13:45:15.735Z,7.78
2023-02-17T13:47:43.108Z,5.07
2023-02-17T13:50:33.821Z,5.53
2023-02-17T13:53:01.178Z,6.68
2023-02-17T13:55:27.237Z,6.70
2023-02-17T13:57:58.051Z,6.60
2023-02-17T14:00:26.693Z,8.90
2023-02-17T14:02:58.497Z,7.50
2023-02-17T14:05:36.125Z,7.85
2023-02-17T14:08:11.583Z,6.20
2023-02-17T14:10:37.560Z,8.60
2023-02-17T14:13:03.779Z,10.13
2023-02-17T14:15:29.882Z,7.10
2023-02-17T14:17:55.876Z,7.30
2023-02-17T14:20:34.015Z,6.95
2023-02-17T14:23:11.969Z,12.77
2023-02-17T14:25:40.723Z,10.40
2023-02-17T14:28:35.933Z,9.50
2023-02-17T14:31:11.998Z,13.93
2023-02-17T14:33:37.934Z,15.30
2023-02-17T14:36:08.391Z,11.45
2023-02-17T14:38:38.835Z,14.80
2023-02-17T14:41:08.891Z,12.90
2023-02-17T14:43:35.776Z,15.90
2023-02-17T14:46:01.746Z,13.93
2023-02-17T14:48:28.229Z,11.65
2023-02-17T14:50:56.368Z,10.30
2023-02-17T14:53:31.188Z,12.10
2023-02-17T14:56:27.241Z,15.52
2023-02-17T14:58:53.579Z,15.43
2023-02-17T15:01:21.622Z,19.38
2023-02-17T15:03:47.842Z,12.43
2023-02-17T15:06:17.663Z,15.05
2023-02-17T15:08:45.293Z,14.15
2023-02-17T15:11:19.185Z,17.98
2023-02-17T15:13:45.259Z,10.95
2023-02-17T15:16:12.373Z,15.90
2023-02-17T15:18:39.234Z,15.60
2023-02-17T15:21:20.669Z,10.50
2023-02-17T15:23:46.591Z,9.18
2023-02-17T15:26:12.528Z,14.93
2023-02-17T15:28:38.420Z,12.35
2023-02-17T15:31:04.612Z,16.95
2023-02-17T15:33:30.545Z,15.05
2023-02-17T15:36:01.988Z,9.40
2023-02-17T15:38:27.945Z,12.18
2023-02-17T15:40:57.708Z,10.48
2023-02-17T15:43:33.873Z,12.60
2023-02-17T15:45:59.760Z,9.98
2023-02-17T15:56:44.106Z,7.40
2023-02-17T15:59:15.735Z,5.97
2023-02-17T16:01:41.901Z,6.18
2023-02-17T16:04:11.058Z,6.82
2023-02-17T16:06:37.651Z,6.10
2023-02-17T16:09:03.746Z,6.88
2023-02-17T16:11:30.340Z,6.57
2023-02-17T16:13:56.428Z,4.90
2023-02-17T16:16:31.604Z,6.50
2023-02-17T16:18:58.821Z,6.25
2023-02-17T16:21:25.007Z,5.10
2023-02-17T16:23:51.907Z,10.07
2023-02-17T16:26:29.746Z,7.95
2023-02-17T16:28:55.967Z,5.45
2023-02-17T16:31:22.715Z,6.10
2023-02-17T16:33:48.706Z,6.65
2023-02-17T16:36:16.824Z,6.40
2023-02-17T16:38:43.379Z,5.45
2023-02-17T16:41:14.013Z,6.13
2023-02-17T16:43:40.162Z,6.70
2023-02-17T16:46:06.352Z,5.97
2023-02-17T16:48:35.908Z,6.72
2023-02-17T16:51:01.775Z,6.80
2023-02-17T16:53:27.949Z,5.78
2023-02-17T16:55:55.030Z,5.90
2023-02-17T16:58:23.130Z,6.13
2023-02-17T17:00:51.487Z,6.32
2023-02-17T17:03:18.808Z,6.57
2023-02-17T17:05:45.184Z,6.20
2023-02-17T17:08:15.311Z,8.13
2023-02-17T17:10:42.937Z,9.27
2023-02-17T17:13:08.991Z,7.13
2023-02-17T17:15:36.997Z,7.60
2023-02-17T17:18:06.850Z,7.38
2023-02-17T17:20:36.303Z,8.00
2023-02-17T17:23:05.535Z,9.38
2023-02-17T17:25:34.154Z,7.50
2023-02-17T17:28:00.112Z,8.65
2023-02-17T17:30:29.411Z,7.72
2023-02-17T17:32:55.372Z,8.82
2023-02-17T17:35:21.390Z,8.30
2023-02-17T17:37:47.780Z,7.88
2023-02-17T17:40:19.906Z,9.18
2023-02-17T17:42:46.134Z,8.52
2023-02-17T17:45:13.350Z,8.48
2023-02-17T17:47:39.630Z,8.02
2023-02-17T17:50:10.219Z,8.25
2023-02-17T17:52:36.978Z,9.40
2023-02-17T17:55:03.487Z,10.38
2023-02-17T17:57:29.346Z,9.30
2023-02-17T17:59:55.199Z,8.43
2023-02-17T18:02:21.091Z,8.82
2023-02-17T18:04:47.238Z,9.50
2023-02-17T18:07:13.350Z,8.65
2023-02-17T18:09:39.554Z,9.45
2023-02-17T18:12:17.189Z,10.52
2023-02-17T18:14:44.129Z,9.25
2023-02-17T18:17:13.234Z,9.18
2023-02-17T18:19:39.968Z,10.68
2023-02-17T18:22:05.914Z,9.82
2023-02-17T18:24:31.988Z,11.50
2023-02-17T18:26:57.795Z,13.25
2023-02-17T18:29:23.732Z,10.52
2023-02-17T18:31:49.921Z,11.00
2023-02-17T18:34:15.859Z,11.25
2023-02-17T18:36:41.840Z,11.25
2023-02-17T18:39:07.635Z,13.02
2023-02-17T18:41:34.280Z,11.68
2023-02-17T18:44:03.030Z,13.25
2023-02-17T18:46:29.316Z,12.75
2023-02-17T18:48:55.773Z,11.93
2023-02-17T18:51:23.242Z,11.88
2023-02-17T18:53:50.550Z,13.88
2023-02-17T18:56:20.029Z,12.82
2023-02-17T18:58:47.475Z,12.35
2023-02-17T19:01:21.640Z,12.82
2023-02-17T19:03:48.076Z,13.73
2023-02-17T19:06:17.521Z,13.68
2023-02-17T19:08:45.190Z,13.02
2023-02-17T19:11:11.548Z,14.13
2023-02-17T19:13:37.681Z,13.27
2023-02-17T19:16:06.459Z,13.63
2023-02-17T19:18:32.631Z,13.88
2023-02-17T19:20:58.491Z,16.80
2023-02-17T19:23:24.313Z,15.02
2023-02-17T19:25:50.224Z,14.45
2023-02-17T19:28:16.083Z,14.55
2023-02-17T19:30:42.061Z,15.80
2023-02-17T19:33:08.027Z,16.15
2023-02-17T19:35:34.164Z,14.75
2023-02-17T19:38:00.085Z,14.57
2023-02-17T19:40:25.921Z,16.35
2023-02-17T19:42:51.971Z,15.23
2023-02-17T19:45:17.961Z,14.52
2023-02-17T19:47:45.430Z,15.00
2023-02-17T19:50:11.432Z,15.82
2023-02-17T19:52:37.406Z,19.88
2023-02-17T19:55:04.473Z,19.35
2023-02-17T19:57:30.456Z,18.65
2023-02-17T19:59:56.487Z,18.58
2023-02-17T20:02:22.481Z,19.60
2023-02-17T20:04:48.572Z,19.25
2023-02-17T20:07:14.521Z,19.75
2023-02-17T20:09:40.730Z,18.42
2023-02-17T20:12:06.976Z,20.67
2023-02-17T20:14:32.900Z,19.92
2023-02-17T20:17:00.113Z,20.83
2023-02-17T20:19:27.352Z,20.10
2023-02-17T20:21:53.303Z,21.42
2023-02-17T20:24:19.460Z,18.52
2023-02-17T20:26:47.236Z,19.75
2023-02-17T20:29:13.756Z,18.08
2023-02-17T20:31:41.204Z,17.55
2023-02-17T20:34:15.748Z,17.90
2023-02-17T20:36:41.702Z,16.35
2023-02-17T20:39:07.644Z,16.88
2023-02-17T20:41:33.520Z,17.95
2023-02-17T20:44:01.704Z,17.13
2023-02-17T20:46:28.437Z,16.70
2023-02-17T20:48:55.326Z,17.92
2023-02-17T20:51:23.073Z,16.95
2023-02-17T20:53:49.688Z,17.75
2023-02-17T20:56:18.799Z,16.70
2023-02-17T20:58:45.994Z,20.13
2023-02-17T21:01:12.233Z,16.90
2023-02-17T21:03:38.343Z,17.25
2023-02-17T21:06:13.975Z,16.65
2023-02-17T21:08:39.788Z,20.48
2023-02-17T21:11:05.583Z,16.67
2023-02-17T21:13:31.415Z,18.92
2023-02-17T21:15:57.337Z,16.75
2023-02-17T21:18:23.143Z,17.38
2023-02-17T21:20:48.926Z,17.33
2023-02-17T21:23:15.120Z,20.23
2023-02-17T21:25:44.624Z,18.17
2023-02-17T21:28:10.420Z,23.58
2023-02-17T21:30:36.688Z,19.20
2023-02-17T21:33:02.664Z,19.02
2023-02-17T21:35:28.444Z,19.10
2023-02-17T21:37:54.351Z,20.08
2023-02-17T21:40:20.165Z,19.50
2023-02-17T21:43:04.618Z,20.65
2023-02-17T21:45:36.619Z,19.42
2023-02-17T21:48:02.511Z,20.65
2023-02-17T21:50:28.310Z,21.23
2023-02-17T21:52:54.118Z,21.88
2023-02-17T21:55:19.963Z,22.02
2023-02-17T21:57:45.816Z,22.50
2023-02-17T22:00:12.484Z,21.23
2023-02-17T22:02:38.821Z,20.40
2023-02-17T22:05:05.200Z,19.67
2023-02-17T22:07:31.034Z,19.13
2023-02-17T22:09:58.121Z,21.30
2023-02-17T22:12:24.201Z,21.67
2023-02-17T22:14:50.045Z,21.90
2023-02-17T22:17:16.720Z,20.42
2023-02-17T22:19:42.820Z,22.15
2023-02-17T22:22:08.736Z,23.17
2023-02-17T22:24:34.594Z,22.20
2023-02-17T22:27:00.460Z,22.77
2023-02-17T22:29:26.364Z,24.42
2023-02-17T22:31:55.162Z,20.88
2023-02-17T22:34:22.439Z,21.52
2023-02-17T22:36:48.535Z,22.40
2023-02-17T22:39:15.101Z,22.38
2023-02-17T22:41:41.271Z,25.05
2023-02-17T22:44:07.489Z,23.27
2023-02-17T22:46:34.310Z,25.33
2023-02-17T22:49:00.851Z,24.10
2023-02-17T22:51:37.129Z,24.63
2023-02-17T22:54:03.735Z,29.63
2023-02-17T22:56:29.941Z,26.52
2023-02-17T22:58:59.818Z,29.45
2023-02-17T23:01:27.508Z,25.52
2023-02-17T23:03:54.404Z,46.00
2023-02-17T23:06:34.851Z,28.63
2023-02-17T23:09:01.533Z,30.67
2023-02-17T23:11:48.858Z,32.83
2023-02-17T23:14:17.902Z,36.30
2023-02-17T23:16:44.136Z,30.55
2023-02-17T23:19:14.156Z,28.83
2023-02-17T23:21:48.957Z,29.80
2023-02-17T23:24:15.726Z,28.17
2023-02-17T23:26:41.876Z,31.02
2023-02-17T23:29:08.851Z,34.80
2023-02-17T23:31:36.891Z,32.88
2023-02-17T23:34:03.419Z,33.85
2023-02-17T23:36:29.581Z,35.67
2023-02-17T23:38:57.740Z,33.08
2023-02-17T23:41:23.747Z,30.17
2023-02-17T23:43:49.668Z,30.75
2023-02-17T23:46:15.630Z,35.47
2023-02-17T23:48:41.710Z,41.13
2023-02-17T23:51:07.515Z,35.92
2023-02-17T23:53:34.265Z,36.75
2023-02-17T23:56:18.840Z,36.97
2023-02-17T23:58:44.789Z,31.45
